sensor_id;sensor_type;location;lat;lon;timestamp;P1;durP1;ratioP1;P2;durP2;ratioP2
4971;SDS011;2501;51.214;6.768;2023-05-07T00:00:08;5.65;;;4.68;;
4971;SDS011;2501;51.214;6.768;2023-05-07T00:02:40;5.40;;;3.85;;
4971;SDS011;2501;51.214;6.768;2023-05-07T00:05:09;7.40;;;4.18;;
4971;SDS011;2501;51.214;6.768;2023-05-07T00:07:38;5.43;;;4.35;;
4971;SDS011;2501;51.214;6.768;2023-05-07T00:10:07;4.43;;;4.03;;
4971;SDS011;2501;51.214;6.768;2023-05-07T00:12:40;7.47;;;3.70;;
4971;SDS011;2501;51.214;6.768;2023-05-07T00:15:08;8.18;;;4.50;;
4971;SDS011;2501;51.214;6.768;2023-05-07T00:17:37;4.53;;;4.00;;
4971;SDS011;2501;51.214;6.768;2023-05-07T00:20:06;3.80;;;3.37;;
4971;SDS011;2501;51.214;6.768;2023-05-07T00:22:35;4.22;;;3.83;;
4971;SDS011;2501;51.214;6.768;2023-05-07T00:25:04;4.20;;;3.80;;
4971;SDS011;2501;51.214;6.768;2023-05-07T00:27:33;4.60;;;3.97;;
4971;SDS011;2501;51.214;6.768;2023-05-07T00:30:04;5.28;;;3.92;;
4971;SDS011;2501;51.214;6.768;2023-05-07T00:32:34;5.57;;;4.30;;
4971;SDS011;2501;51.214;6.768;2023-05-07T00:35:03;7.60;;;4.20;;
4971;SDS011;2501;51.214;6.768;2023-05-07T00:37:32;3.80;;;3.50;;
4971;SDS011;2501;51.214;6.768;2023-05-07T00:40:00;4.97;;;4.10;;
4971;SDS011;2501;51.214;6.768;2023-05-07T00:42:32;6.75;;;4.43;;
4971;SDS011;2501;51.214;6.768;2023-05-07T00:45:00;6.97;;;4.03;;
4971;SDS011;2501;51.214;6.768;2023-05-07T00:47:31;4.43;;;4.03;;
4971;SDS011;2501;51.214;6.768;2023-05-07T00:50:00;8.18;;;3.75;;
4971;SDS011;2501;51.214;6.768;2023-05-07T00:52:28;6.35;;;4.03;;
4971;SDS011;2501;51.214;6.768;2023-05-07T00:54:57;6.23;;;4.37;;
4971;SDS011;2501;51.214;6.768;2023-05-07T00:57:28;4.25;;;3.67;;
4971;SDS011;2501;51.214;6.768;2023-05-07T00:59:56;3.92;;;3.63;;
4971;SDS011;2501;51.214;6.768;2023-05-07T01:02:25;7.00;;;3.78;;
4971;SDS011;2501;51.214;6.768;2023-05-07T01:04:56;4.20;;;3.60;;
4971;SDS011;2501;51.214;6.768;2023-05-07T01:07:24;9.02;;;5.80;;
4971;SDS011;2501;51.214;6.768;2023-05-07T01:09:53;5.28;;;3.80;;
4971;SDS011;2501;51.214;6.768;2023-05-07T01:12:22;6.82;;;3.90;;
4971;SDS011;2501;51.214;6.768;2023-05-07T01:14:51;4.78;;;4.30;;
4971;SDS011;2501;51.214;6.768;2023-05-07T01:17:20;7.07;;;4.30;;
4971;SDS011;2501;51.214;6.768;2023-05-07T01:19:48;4.40;;;4.00;;
4971;SDS011;2501;51.214;6.768;2023-05-07T01:22:24;8.23;;;3.70;;
4971;SDS011;2501;51.214;6.768;2023-05-07T01:24:57;4.68;;;3.70;;
4971;SDS011;2501;51.214;6.768;2023-05-07T01:27:26;4.00;;;3.70;;
4971;SDS011;2501;51.214;6.768;2023-05-07T01:29:55;4.20;;;3.40;;
4971;SDS011;2501;51.214;6.768;2023-05-07T01:32:24;4.43;;;3.90;;
4971;SDS011;2501;51.214;6.768;2023-05-07T01:34:56;3.88;;;3.50;;
4971;SDS011;2501;51.214;6.768;2023-05-07T01:37:29;3.90;;;3.60;;
4971;SDS011;2501;51.214;6.768;2023-05-07T01:39:57;7.30;;;4.20;;
4971;SDS011;2501;51.214;6.768;2023-05-07T01:42:26;4.38;;;3.70;;
4971;SDS011;2501;51.214;6.768;2023-05-07T01:44:55;3.90;;;3.60;;
4971;SDS011;2501;51.214;6.768;2023-05-07T01:47:24;4.80;;;4.30;;
4971;SDS011;2501;51.214;6.768;2023-05-07T01:49:53;5.03;;;4.10;;
4971;SDS011;2501;51.214;6.768;2023-05-07T01:52:22;4.40;;;4.00;;
4971;SDS011;2501;51.214;6.768;2023-05-07T01:54:53;7.47;;;4.20;;
4971;SDS011;2501;51.214;6.768;2023-05-07T01:57:22;6.03;;;4.32;;
4971;SDS011;2501;51.214;6.768;2023-05-07T01:59:50;4.30;;;3.85;;
4971;SDS011;2501;51.214;6.768;2023-05-07T02:02:18;4.47;;;4.07;;
4971;SDS011;2501;51.214;6.768;2023-05-07T02:04:47;5.55;;;4.50;;
4971;SDS011;2501;51.214;6.768;2023-05-07T02:07:15;5.38;;;3.88;;
4971;SDS011;2501;51.214;6.768;2023-05-07T02:09:44;4.32;;;3.92;;
4971;SDS011;2501;51.214;6.768;2023-05-07T02:12:15;11.15;;;4.00;;
4971;SDS011;2501;51.214;6.768;2023-05-07T02:14:43;4.07;;;3.70;;
4971;SDS011;2501;51.214;6.768;2023-05-07T02:17:11;5.95;;;3.80;;
4971;SDS011;2501;51.214;6.768;2023-05-07T02:19:40;6.13;;;3.70;;
4971;SDS011;2501;51.214;6.768;2023-05-07T02:22:09;4.40;;;3.70;;
4971;SDS011;2501;51.214;6.768;2023-05-07T02:24:38;5.00;;;4.30;;
4971;SDS011;2501;51.214;6.768;2023-05-07T02:27:06;14.23;;;3.83;;
4971;SDS011;2501;51.214;6.768;2023-05-07T02:29:37;5.43;;;3.38;;
4971;SDS011;2501;51.214;6.768;2023-05-07T02:32:06;4.40;;;3.30;;
4971;SDS011;2501;51.214;6.768;2023-05-07T02:34:34;4.13;;;3.30;;
4971;SDS011;2501;51.214;6.768;2023-05-07T02:37:02;7.03;;;3.83;;
4971;SDS011;2501;51.214;6.768;2023-05-07T02:39:31;4.93;;;3.40;;
4971;SDS011;2501;51.214;6.768;2023-05-07T02:41:59;3.60;;;3.40;;
4971;SDS011;2501;51.214;6.768;2023-05-07T02:44:28;4.70;;;3.65;;
4971;SDS011;2501;51.214;6.768;2023-05-07T02:46:59;7.93;;;4.65;;
4971;SDS011;2501;51.214;6.768;2023-05-07T02:49:28;6.85;;;4.43;;
4971;SDS011;2501;51.214;6.768;2023-05-07T02:51:56;5.07;;;3.70;;
4971;SDS011;2501;51.214;6.768;2023-05-07T02:54:25;4.20;;;3.90;;
4971;SDS011;2501;51.214;6.768;2023-05-07T02:56:53;5.22;;;3.67;;
4971;SDS011;2501;51.214;6.768;2023-05-07T02:59:21;5.95;;;3.67;;
4971;SDS011;2501;51.214;6.768;2023-05-07T03:01:50;3.85;;;3.45;;
4971;SDS011;2501;51.214;6.768;2023-05-07T03:04:21;6.60;;;4.00;;
4971;SDS011;2501;51.214;6.768;2023-05-07T03:06:49;6.20;;;4.00;;
4971;SDS011;2501;51.214;6.768;2023-05-07T03:09:18;4.43;;;3.70;;
4971;SDS011;2501;51.214;6.768;2023-05-07T03:11:46;4.20;;;3.50;;
4971;SDS011;2501;51.214;6.768;2023-05-07T03:14:15;3.60;;;3.40;;
4971;SDS011;2501;51.214;6.768;2023-05-07T03:16:43;10.32;;;3.75;;
4971;SDS011;2501;51.214;6.768;2023-05-07T03:19:11;6.82;;;3.40;;
4971;SDS011;2501;51.214;6.768;2023-05-07T03:21:42;5.85;;;3.30;;
4971;SDS011;2501;51.214;6.768;2023-05-07T03:24:11;4.80;;;2.90;;
4971;SDS011;2501;51.214;6.768;2023-05-07T03:26:39;3.53;;;3.00;;
4971;SDS011;2501;51.214;6.768;2023-05-07T03:29:07;5.70;;;3.20;;
4971;SDS011;2501;51.214;6.768;2023-05-07T03:31:36;3.60;;;2.90;;
4971;SDS011;2501;51.214;6.768;2023-05-07T03:34:04;2.70;;;2.50;;
4971;SDS011;2501;51.214;6.768;2023-05-07T03:36:33;7.50;;;3.20;;
4971;SDS011;2501;51.214;6.768;2023-05-07T03:39:04;2.83;;;2.60;;
4971;SDS011;2501;51.214;6.768;2023-05-07T03:41:32;4.50;;;2.72;;
4971;SDS011;2501;51.214;6.768;2023-05-07T03:44:01;2.97;;;2.70;;
4971;SDS011;2501;51.214;6.768;2023-05-07T03:46:29;4.70;;;2.90;;
4971;SDS011;2501;51.214;6.768;2023-05-07T03:48:58;4.60;;;2.97;;
4971;SDS011;2501;51.214;6.768;2023-05-07T03:51:27;2.90;;;2.60;;
4971;SDS011;2501;51.214;6.768;2023-05-07T03:53:55;4.15;;;2.50;;
4971;SDS011;2501;51.214;6.768;2023-05-07T03:56:27;3.90;;;2.58;;
4971;SDS011;2501;51.214;6.768;2023-05-07T03:58:56;2.60;;;2.40;;
4971;SDS011;2501;51.214;6.768;2023-05-07T04:01:24;3.00;;;2.30;;
4971;SDS011;2501;51.214;6.768;2023-05-07T04:03:53;2.50;;;2.30;;
4971;SDS011;2501;51.214;6.768;2023-05-07T04:06:21;2.63;;;2.42;;
4971;SDS011;2501;51.214;6.768;2023-05-07T04:08:50;3.30;;;2.60;;
4971;SDS011;2501;51.214;6.768;2023-05-07T04:11:18;4.32;;;3.00;;
4971;SDS011;2501;51.214;6.768;2023-05-07T04:13:49;5.28;;;2.70;;
4971;SDS011;2501;51.214;6.768;2023-05-07T04:16:18;5.57;;;2.78;;
4971;SDS011;2501;51.214;6.768;2023-05-07T04:18:46;3.35;;;2.55;;
4971;SDS011;2501;51.214;6.768;2023-05-07T04:21:15;2.65;;;2.40;;
4971;SDS011;2501;51.214;6.768;2023-05-07T04:23:44;4.85;;;2.50;;
4971;SDS011;2501;51.214;6.768;2023-05-07T04:26:13;2.72;;;2.20;;
4971;SDS011;2501;51.214;6.768;2023-05-07T04:28:42;3.08;;;2.63;;
4971;SDS011;2501;51.214;6.768;2023-05-07T04:31:13;2.60;;;2.40;;
4971;SDS011;2501;51.214;6.768;2023-05-07T04:33:42;4.20;;;3.10;;
4971;SDS011;2501;51.214;6.768;2023-05-07T04:36:10;2.40;;;2.20;;
4971;SDS011;2501;51.214;6.768;2023-05-07T04:38:38;2.70;;;2.20;;
4971;SDS011;2501;51.214;6.768;2023-05-07T04:41:08;2.50;;;2.33;;
4971;SDS011;2501;51.214;6.768;2023-05-07T04:43:36;4.50;;;2.50;;
4971;SDS011;2501;51.214;6.768;2023-05-07T04:46:05;2.20;;;2.00;;
4971;SDS011;2501;51.214;6.768;2023-05-07T04:48:36;2.35;;;2.13;;
4971;SDS011;2501;51.214;6.768;2023-05-07T04:51:04;2.50;;;2.30;;
4971;SDS011;2501;51.214;6.768;2023-05-07T04:53:33;2.88;;;2.67;;
4971;SDS011;2501;51.214;6.768;2023-05-07T04:56:05;2.60;;;2.50;;
4971;SDS011;2501;51.214;6.768;2023-05-07T04:58:34;3.40;;;2.72;;
4971;SDS011;2501;51.214;6.768;2023-05-07T05:01:02;3.65;;;2.42;;
4971;SDS011;2501;51.214;6.768;2023-05-07T05:03:31;2.70;;;2.50;;
4971;SDS011;2501;51.214;6.768;2023-05-07T05:06:02;3.10;;;2.67;;
4971;SDS011;2501;51.214;6.768;2023-05-07T05:08:31;4.60;;;2.90;;
4971;SDS011;2501;51.214;6.768;2023-05-07T05:11:00;2.97;;;2.77;;
4971;SDS011;2501;51.214;6.768;2023-05-07T05:13:31;3.58;;;2.25;;
4971;SDS011;2501;51.214;6.768;2023-05-07T05:16:00;3.28;;;2.55;;
4971;SDS011;2501;51.214;6.768;2023-05-07T05:18:28;2.55;;;2.35;;
4971;SDS011;2501;51.214;6.768;2023-05-07T05:20:56;3.70;;;2.45;;
4971;SDS011;2501;51.214;6.768;2023-05-07T05:23:28;2.88;;;2.53;;
4971;SDS011;2501;51.214;6.768;2023-05-07T05:25:56;3.97;;;2.40;;
4971;SDS011;2501;51.214;6.768;2023-05-07T05:28:25;6.18;;;2.70;;
4971;SDS011;2501;51.214;6.768;2023-05-07T05:30:53;5.75;;;3.38;;
4971;SDS011;2501;51.214;6.768;2023-05-07T05:33:23;2.70;;;2.50;;
4971;SDS011;2501;51.214;6.768;2023-05-07T05:35:53;3.20;;;3.00;;
4971;SDS011;2501;51.214;6.768;2023-05-07T05:38:21;2.63;;;2.38;;
4971;SDS011;2501;51.214;6.768;2023-05-07T05:40:52;2.40;;;2.30;;
4971;SDS011;2501;51.214;6.768;2023-05-07T05:43:21;3.05;;;2.33;;
4971;SDS011;2501;51.214;6.768;2023-05-07T05:45:49;2.58;;;2.30;;
4971;SDS011;2501;51.214;6.768;2023-05-07T05:48:18;2.40;;;2.20;;
4971;SDS011;2501;51.214;6.768;2023-05-07T05:50:49;2.63;;;2.40;;
4971;SDS011;2501;51.214;6.768;2023-05-07T05:53:17;4.40;;;2.65;;
4971;SDS011;2501;51.214;6.768;2023-05-07T05:55:46;4.53;;;2.75;;
4971;SDS011;2501;51.214;6.768;2023-05-07T05:58:19;3.60;;;2.80;;
4971;SDS011;2501;51.214;6.768;2023-05-07T06:00:47;3.75;;;2.28;;
4971;SDS011;2501;51.214;6.768;2023-05-07T06:03:17;2.30;;;2.20;;
4971;SDS011;2501;51.214;6.768;2023-05-07T06:05:45;6.50;;;2.50;;
4971;SDS011;2501;51.214;6.768;2023-05-07T06:08:14;4.90;;;2.30;;
4971;SDS011;2501;51.214;6.768;2023-05-07T06:10:43;2.97;;;2.50;;
4971;SDS011;2501;51.214;6.768;2023-05-07T06:13:12;3.75;;;2.50;;
4971;SDS011;2501;51.214;6.768;2023-05-07T06:15:43;2.90;;;2.60;;
4971;SDS011;2501;51.214;6.768;2023-05-07T06:18:11;2.88;;;2.67;;
4971;SDS011;2501;51.214;6.768;2023-05-07T06:20:40;3.50;;;2.80;;
4971;SDS011;2501;51.214;6.768;2023-05-07T06:23:08;5.72;;;2.63;;
4971;SDS011;2501;51.214;6.768;2023-05-07T06:25:36;3.38;;;2.72;;
4971;SDS011;2501;51.214;6.768;2023-05-07T06:28:05;2.50;;;2.40;;
4971;SDS011;2501;51.214;6.768;2023-05-07T06:30:36;6.93;;;2.60;;
4971;SDS011;2501;51.214;6.768;2023-05-07T06:33:08;2.42;;;2.33;;
4971;SDS011;2501;51.214;6.768;2023-05-07T06:35:36;3.03;;;2.75;;
4971;SDS011;2501;51.214;6.768;2023-05-07T06:38:04;2.17;;;2.07;;
4971;SDS011;2501;51.214;6.768;2023-05-07T06:40:33;2.37;;;2.23;;
4971;SDS011;2501;51.214;6.768;2023-05-07T06:43:01;2.38;;;2.03;;
4971;SDS011;2501;51.214;6.768;2023-05-07T06:45:30;4.40;;;2.30;;
4971;SDS011;2501;51.214;6.768;2023-05-07T06:47:58;4.80;;;2.70;;
4971;SDS011;2501;51.214;6.768;2023-05-07T06:50:29;4.40;;;2.20;;
4971;SDS011;2501;51.214;6.768;2023-05-07T06:52:57;4.07;;;2.75;;
4971;SDS011;2501;51.214;6.768;2023-05-07T06:55:26;2.00;;;1.90;;
4971;SDS011;2501;51.214;6.768;2023-05-07T06:57:54;3.60;;;2.30;;
4971;SDS011;2501;51.214;6.768;2023-05-07T07:00:25;2.20;;;2.10;;
4971;SDS011;2501;51.214;6.768;2023-05-07T07:02:54;2.30;;;2.10;;
4971;SDS011;2501;51.214;6.768;2023-05-07T07:05:23;3.38;;;2.58;;
4971;SDS011;2501;51.214;6.768;2023-05-07T07:07:55;2.28;;;2.08;;
4971;SDS011;2501;51.214;6.768;2023-05-07T07:10:23;3.45;;;2.40;;
4971;SDS011;2501;51.214;6.768;2023-05-07T07:12:52;3.00;;;2.70;;
4971;SDS011;2501;51.214;6.768;2023-05-07T07:15:20;3.70;;;2.30;;
4971;SDS011;2501;51.214;6.768;2023-05-07T07:17:50;3.85;;;2.50;;
4971;SDS011;2501;51.214;6.768;2023-05-07T07:20:18;5.40;;;2.50;;
4971;SDS011;2501;51.214;6.768;2023-05-07T07:22:46;2.92;;;2.72;;
4971;SDS011;2501;51.214;6.768;2023-05-07T07:25:17;8.27;;;2.30;;
4971;SDS011;2501;51.214;6.768;2023-05-07T07:27:46;3.70;;;2.60;;
4971;SDS011;2501;51.214;6.768;2023-05-07T07:30:14;2.58;;;2.45;;
4971;SDS011;2501;51.214;6.768;2023-05-07T07:32:43;2.65;;;2.45;;
4971;SDS011;2501;51.214;6.768;2023-05-07T07:35:11;4.43;;;2.70;;
4971;SDS011;2501;51.214;6.768;2023-05-07T07:37:40;3.00;;;2.80;;
4971;SDS011;2501;51.214;6.768;2023-05-07T07:40:09;4.07;;;2.90;;
4971;SDS011;2501;51.214;6.768;2023-05-07T07:42:41;2.72;;;2.40;;
4971;SDS011;2501;51.214;6.768;2023-05-07T07:45:10;3.40;;;2.30;;
4971;SDS011;2501;51.214;6.768;2023-05-07T07:47:39;2.78;;;2.40;;
4971;SDS011;2501;51.214;6.768;2023-05-07T07:50:08;2.58;;;2.38;;
4971;SDS011;2501;51.214;6.768;2023-05-07T07:52:37;3.87;;;2.27;;
4971;SDS011;2501;51.214;6.768;2023-05-07T07:55:06;4.03;;;2.10;;
4971;SDS011;2501;51.214;6.768;2023-05-07T07:57:35;3.97;;;2.30;;
4971;SDS011;2501;51.214;6.768;2023-05-07T08:00:08;4.15;;;2.00;;
4971;SDS011;2501;51.214;6.768;2023-05-07T08:02:37;2.00;;;1.90;;
4971;SDS011;2501;51.214;6.768;2023-05-07T08:05:06;3.40;;;2.28;;
4971;SDS011;2501;51.214;6.768;2023-05-07T08:07:35;2.70;;;1.85;;
4971;SDS011;2501;51.214;6.768;2023-05-07T08:10:04;1.75;;;1.65;;
4971;SDS011;2501;51.214;6.768;2023-05-07T08:12:33;1.80;;;1.60;;
4971;SDS011;2501;51.214;6.768;2023-05-07T08:15:01;3.28;;;2.63;;
4971;SDS011;2501;51.214;6.768;2023-05-07T08:17:32;3.97;;;2.10;;
4971;SDS011;2501;51.214;6.768;2023-05-07T08:20:01;4.88;;;2.17;;
4971;SDS011;2501;51.214;6.768;2023-05-07T08:22:29;4.70;;;2.03;;
4971;SDS011;2501;51.214;6.768;2023-05-07T08:24:58;4.03;;;2.60;;
4971;SDS011;2501;51.214;6.768;2023-05-07T08:27:26;5.60;;;2.15;;
4971;SDS011;2501;51.214;6.768;2023-05-07T08:29:55;3.00;;;2.40;;
4971;SDS011;2501;51.214;6.768;2023-05-07T08:32:23;2.70;;;2.20;;
4971;SDS011;2501;51.214;6.768;2023-05-07T08:34:55;5.00;;;2.22;;
4971;SDS011;2501;51.214;6.768;2023-05-07T08:37:23;2.35;;;2.10;;
4971;SDS011;2501;51.214;6.768;2023-05-07T08:39:52;5.70;;;3.33;;
4971;SDS011;2501;51.214;6.768;2023-05-07T08:42:20;7.97;;;2.97;;
4971;SDS011;2501;51.214;6.768;2023-05-07T08:44:51;2.22;;;2.00;;
4971;SDS011;2501;51.214;6.768;2023-05-07T08:47:22;2.63;;;2.35;;
4971;SDS011;2501;51.214;6.768;2023-05-07T08:49:57;2.47;;;2.20;;
4971;SDS011;2501;51.214;6.768;2023-05-07T08:52:26;2.13;;;1.90;;
4971;SDS011;2501;51.214;6.768;2023-05-07T08:54:55;2.88;;;2.58;;
4971;SDS011;2501;51.214;6.768;2023-05-07T08:57:24;2.33;;;2.13;;
4971;SDS011;2501;51.214;6.768;2023-05-07T08:59:52;2.60;;;2.13;;
4971;SDS011;2501;51.214;6.768;2023-05-07T09:02:20;5.57;;;2.10;;
4971;SDS011;2501;51.214;6.768;2023-05-07T09:04:49;3.90;;;2.35;;
4971;SDS011;2501;51.214;6.768;2023-05-07T09:07:21;2.95;;;1.90;;
4971;SDS011;2501;51.214;6.768;2023-05-07T09:09:50;6.10;;;2.00;;
4971;SDS011;2501;51.214;6.768;2023-05-07T09:12:19;5.15;;;2.30;;
4971;SDS011;2501;51.214;6.768;2023-05-07T09:14:48;2.85;;;2.42;;
4971;SDS011;2501;51.214;6.768;2023-05-07T09:17:17;5.95;;;2.10;;
4971;SDS011;2501;51.214;6.768;2023-05-07T09:19:46;3.72;;;2.30;;
4971;SDS011;2501;51.214;6.768;2023-05-07T09:22:15;6.18;;;2.85;;
4971;SDS011;2501;51.214;6.768;2023-05-07T09:24:50;2.60;;;2.30;;
4971;SDS011;2501;51.214;6.768;2023-05-07T09:27:19;3.50;;;2.60;;
4971;SDS011;2501;51.214;6.768;2023-05-07T09:29:47;2.00;;;1.90;;
4971;SDS011;2501;51.214;6.768;2023-05-07T09:32:16;2.90;;;2.00;;
4971;SDS011;2501;51.214;6.768;2023-05-07T09:34:44;5.13;;;2.30;;
4971;SDS011;2501;51.214;6.768;2023-05-07T09:37:13;3.72;;;1.83;;
4971;SDS011;2501;51.214;6.768;2023-05-07T09:39:42;3.90;;;1.60;;
4971;SDS011;2501;51.214;6.768;2023-05-07T09:42:14;3.55;;;1.75;;
4971;SDS011;2501;51.214;6.768;2023-05-07T09:44:43;9.30;;;2.10;;
4971;SDS011;2501;51.214;6.768;2023-05-07T09:47:12;2.83;;;1.90;;
4971;SDS011;2501;51.214;6.768;2023-05-07T09:49:47;2.15;;;2.05;;
4971;SDS011;2501;51.214;6.768;2023-05-07T09:52:16;2.97;;;1.90;;
4971;SDS011;2501;51.214;6.768;2023-05-07T09:54:45;2.40;;;1.98;;
4971;SDS011;2501;51.214;6.768;2023-05-07T09:57:17;4.82;;;2.13;;
4971;SDS011;2501;51.214;6.768;2023-05-07T09:59:48;2.30;;;1.80;;
4971;SDS011;2501;51.214;6.768;2023-05-07T10:02:20;2.88;;;1.70;;
4971;SDS011;2501;51.214;6.768;2023-05-07T10:04:49;4.38;;;1.60;;
4971;SDS011;2501;51.214;6.768;2023-05-07T10:07:18;2.00;;;1.80;;
4971;SDS011;2501;51.214;6.768;2023-05-07T10:09:49;2.00;;;1.80;;
4971;SDS011;2501;51.214;6.768;2023-05-07T10:12:20;9.48;;;4.10;;
4971;SDS011;2501;51.214;6.768;2023-05-07T10:14:49;5.45;;;2.50;;
4971;SDS011;2501;51.214;6.768;2023-05-07T10:17:20;5.50;;;1.50;;
4971;SDS011;2501;51.214;6.768;2023-05-07T10:19:51;2.97;;;1.85;;
4971;SDS011;2501;51.214;6.768;2023-05-07T10:22:21;3.47;;;1.60;;
4971;SDS011;2501;51.214;6.768;2023-05-07T10:24:52;2.20;;;1.60;;
4971;SDS011;2501;51.214;6.768;2023-05-07T10:27:28;2.17;;;1.80;;
4971;SDS011;2501;51.214;6.768;2023-05-07T10:29:59;2.40;;;1.77;;
4971;SDS011;2501;51.214;6.768;2023-05-07T10:32:37;2.17;;;1.75;;
4971;SDS011;2501;51.214;6.768;2023-05-07T10:35:10;2.40;;;2.10;;
4971;SDS011;2501;51.214;6.768;2023-05-07T10:37:42;3.30;;;2.30;;
4971;SDS011;2501;51.214;6.768;2023-05-07T10:40:11;2.50;;;1.80;;
4971;SDS011;2501;51.214;6.768;2023-05-07T10:42:55;2.20;;;1.70;;
4971;SDS011;2501;51.214;6.768;2023-05-07T10:45:25;1.80;;;1.70;;
4971;SDS011;2501;51.214;6.768;2023-05-07T10:48:07;2.10;;;1.90;;
4971;SDS011;2501;51.214;6.768;2023-05-07T10:50:36;3.67;;;1.98;;
4971;SDS011;2501;51.214;6.768;2023-05-07T10:53:21;1.92;;;1.40;;
4971;SDS011;2501;51.214;6.768;2023-05-07T10:59:04;1.88;;;1.70;;
4971;SDS011;2501;51.214;6.768;2023-05-07T11:02:00;1.70;;;1.60;;
4971;SDS011;2501;51.214;6.768;2023-05-07T11:04:31;3.50;;;1.70;;
4971;SDS011;2501;51.214;6.768;2023-05-07T11:09:56;1.58;;;1.48;;
4971;SDS011;2501;51.214;6.768;2023-05-07T11:18:19;1.40;;;1.30;;
4971;SDS011;2501;51.214;6.768;2023-05-07T11:20:54;1.80;;;1.63;;
4971;SDS011;2501;51.214;6.768;2023-05-07T11:26:41;2.38;;;1.80;;
4971;SDS011;2501;51.214;6.768;2023-05-07T11:29:16;4.05;;;1.63;;
4971;SDS011;2501;51.214;6.768;2023-05-07T11:31:50;1.70;;;1.60;;
4971;SDS011;2501;51.214;6.768;2023-05-07T11:34:20;2.33;;;1.70;;
4971;SDS011;2501;51.214;6.768;2023-05-07T11:36:49;1.70;;;1.60;;
4971;SDS011;2501;51.214;6.768;2023-05-07T11:39:28;1.63;;;1.53;;
4971;SDS011;2501;51.214;6.768;2023-05-07T11:41:58;2.65;;;2.45;;
4971;SDS011;2501;51.214;6.768;2023-05-07T11:44:39;2.72;;;1.70;;
4971;SDS011;2501;51.214;6.768;2023-05-07T11:47:12;1.60;;;1.50;;
4971;SDS011;2501;51.214;6.768;2023-05-07T11:49:45;5.00;;;1.60;;
4971;SDS011;2501;51.214;6.768;2023-05-07T11:52:17;2.70;;;1.40;;
4971;SDS011;2501;51.214;6.768;2023-05-07T11:54:50;1.90;;;1.70;;
4971;SDS011;2501;51.214;6.768;2023-05-07T11:57:19;2.10;;;2.00;;
4971;SDS011;2501;51.214;6.768;2023-05-07T11:59:52;3.10;;;1.80;;
4971;SDS011;2501;51.214;6.768;2023-05-07T12:02:23;1.88;;;1.65;;
4971;SDS011;2501;51.214;6.768;2023-05-07T12:04:53;1.92;;;1.48;;
4971;SDS011;2501;51.214;6.768;2023-05-07T12:07:23;3.00;;;1.60;;
4971;SDS011;2501;51.214;6.768;2023-05-07T12:09:52;2.93;;;1.40;;
4971;SDS011;2501;51.214;6.768;2023-05-07T12:12:21;6.82;;;1.80;;
4971;SDS011;2501;51.214;6.768;2023-05-07T12:14:49;2.00;;;1.73;;
4971;SDS011;2501;51.214;6.768;2023-05-07T12:17:18;5.68;;;1.73;;
4971;SDS011;2501;51.214;6.768;2023-05-07T12:19:49;3.75;;;1.80;;
4971;SDS011;2501;51.214;6.768;2023-05-07T12:22:18;2.40;;;1.63;;
4971;SDS011;2501;51.214;6.768;2023-05-07T12:24:48;2.70;;;1.80;;
4971;SDS011;2501;51.214;6.768;2023-05-07T12:27:17;3.35;;;1.63;;
4971;SDS011;2501;51.214;6.768;2023-05-07T12:29:46;2.15;;;1.80;;
4971;SDS011;2501;51.214;6.768;2023-05-07T12:32:15;1.50;;;1.40;;
4971;SDS011;2501;51.214;6.768;2023-05-07T12:34:45;1.77;;;1.55;;
4971;SDS011;2501;51.214;6.768;2023-05-07T12:37:16;2.23;;;1.70;;
4971;SDS011;2501;51.214;6.768;2023-05-07T12:40:03;1.35;;;1.25;;
4971;SDS011;2501;51.214;6.768;2023-05-07T12:42:32;2.20;;;2.00;;
4971;SDS011;2501;51.214;6.768;2023-05-07T12:45:12;6.00;;;1.60;;
4971;SDS011;2501;51.214;6.768;2023-05-07T12:47:43;2.00;;;1.80;;
4971;SDS011;2501;51.214;6.768;2023-05-07T12:50:12;1.90;;;1.70;;
4971;SDS011;2501;51.214;6.768;2023-05-07T12:52:45;2.30;;;1.60;;
4971;SDS011;2501;51.214;6.768;2023-05-07T12:55:15;1.70;;;1.60;;
4971;SDS011;2501;51.214;6.768;2023-05-07T12:57:45;3.53;;;1.70;;
4971;SDS011;2501;51.214;6.768;2023-05-07T13:00:16;2.20;;;1.50;;
4971;SDS011;2501;51.214;6.768;2023-05-07T13:02:45;1.92;;;1.50;;
4971;SDS011;2501;51.214;6.768;2023-05-07T13:05:14;1.95;;;1.85;;
4971;SDS011;2501;51.214;6.768;2023-05-07T13:07:54;2.40;;;1.52;;
4971;SDS011;2501;51.214;6.768;2023-05-07T13:10:23;1.65;;;1.55;;
4971;SDS011;2501;51.214;6.768;2023-05-07T13:12:52;3.42;;;1.50;;
4971;SDS011;2501;51.214;6.768;2023-05-07T13:15:21;1.40;;;1.30;;
4971;SDS011;2501;51.214;6.768;2023-05-07T13:17:49;3.10;;;2.10;;
4971;SDS011;2501;51.214;6.768;2023-05-07T13:20:18;2.40;;;2.20;;
4971;SDS011;2501;51.214;6.768;2023-05-07T13:22:47;5.28;;;2.10;;
4971;SDS011;2501;51.214;6.768;2023-05-07T13:25:18;2.00;;;1.60;;
4971;SDS011;2501;51.214;6.768;2023-05-07T13:27:46;2.00;;;1.30;;
4971;SDS011;2501;51.214;6.768;2023-05-07T13:30:15;1.73;;;1.63;;
4971;SDS011;2501;51.214;6.768;2023-05-07T13:32:43;3.72;;;1.90;;
4971;SDS011;2501;51.214;6.768;2023-05-07T13:35:13;2.00;;;1.90;;
4971;SDS011;2501;51.214;6.768;2023-05-07T13:37:41;3.60;;;2.13;;
4971;SDS011;2501;51.214;6.768;2023-05-07T13:40:10;2.72;;;2.13;;
4971;SDS011;2501;51.214;6.768;2023-05-07T13:42:42;1.90;;;1.80;;
4971;SDS011;2501;51.214;6.768;2023-05-07T13:45:10;5.90;;;2.03;;
4971;SDS011;2501;51.214;6.768;2023-05-07T13:47:39;2.45;;;2.25;;
4971;SDS011;2501;51.214;6.768;2023-05-07T13:50:08;3.50;;;1.90;;
4971;SDS011;2501;51.214;6.768;2023-05-07T13:52:39;3.70;;;1.50;;
4971;SDS011;2501;51.214;6.768;2023-05-07T13:55:08;5.20;;;1.90;;
4971;SDS011;2501;51.214;6.768;2023-05-07T13:57:38;3.00;;;1.80;;
4971;SDS011;2501;51.214;6.768;2023-05-07T14:00:09;2.08;;;1.98;;
4971;SDS011;2501;51.214;6.768;2023-05-07T14:02:39;1.90;;;1.70;;
4971;SDS011;2501;51.214;6.768;2023-05-07T14:05:11;2.97;;;1.90;;
4971;SDS011;2501;51.214;6.768;2023-05-07T14:07:40;5.57;;;2.58;;
4971;SDS011;2501;51.214;6.768;2023-05-07T14:10:09;4.97;;;2.50;;
4971;SDS011;2501;51.214;6.768;2023-05-07T14:12:38;2.90;;;2.70;;
4971;SDS011;2501;51.214;6.768;2023-05-07T14:15:10;2.80;;;2.50;;
4971;SDS011;2501;51.214;6.768;2023-05-07T14:17:38;6.15;;;3.20;;
4971;SDS011;2501;51.214;6.768;2023-05-07T14:20:08;7.82;;;3.75;;
4971;SDS011;2501;51.214;6.768;2023-05-07T14:22:37;8.00;;;4.70;;
4971;SDS011;2501;51.214;6.768;2023-05-07T14:25:06;4.23;;;3.83;;
4971;SDS011;2501;51.214;6.768;2023-05-07T14:27:37;3.30;;;3.00;;
4971;SDS011;2501;51.214;6.768;2023-05-07T14:30:09;4.47;;;3.60;;
4971;SDS011;2501;51.214;6.768;2023-05-07T14:32:38;3.78;;;3.38;;
4971;SDS011;2501;51.214;6.768;2023-05-07T14:35:07;5.53;;;3.78;;
4971;SDS011;2501;51.214;6.768;2023-05-07T14:37:36;5.35;;;4.40;;
4971;SDS011;2501;51.214;6.768;2023-05-07T14:40:05;8.20;;;5.93;;
4971;SDS011;2501;51.214;6.768;2023-05-07T14:42:35;8.10;;;5.60;;
4971;SDS011;2501;51.214;6.768;2023-05-07T14:45:04;9.55;;;6.35;;
4971;SDS011;2501;51.214;6.768;2023-05-07T14:47:36;7.80;;;6.07;;
4971;SDS011;2501;51.214;6.768;2023-05-07T14:50:04;7.53;;;5.70;;
4971;SDS011;2501;51.214;6.768;2023-05-07T14:52:33;9.43;;;5.82;;
4971;SDS011;2501;51.214;6.768;2023-05-07T14:55:02;10.48;;;5.85;;
4971;SDS011;2501;51.214;6.768;2023-05-07T14:57:31;7.43;;;6.47;;
4971;SDS011;2501;51.214;6.768;2023-05-07T15:00:00;9.15;;;6.90;;
4971;SDS011;2501;51.214;6.768;2023-05-07T15:02:29;9.50;;;5.30;;
4971;SDS011;2501;51.214;6.768;2023-05-07T15:05:01;12.55;;;5.43;;
4971;SDS011;2501;51.214;6.768;2023-05-07T15:07:30;4.90;;;4.50;;
4971;SDS011;2501;51.214;6.768;2023-05-07T15:09:59;27.73;;;13.63;;
4971;SDS011;2501;51.214;6.768;2023-05-07T15:12:27;5.55;;;4.80;;
4971;SDS011;2501;51.214;6.768;2023-05-07T15:14:56;9.18;;;5.53;;
4971;SDS011;2501;51.214;6.768;2023-05-07T15:17:24;9.57;;;5.95;;
4971;SDS011;2501;51.214;6.768;2023-05-07T15:19:53;5.47;;;3.75;;
4971;SDS011;2501;51.214;6.768;2023-05-07T15:22:24;5.15;;;3.60;;
4971;SDS011;2501;51.214;6.768;2023-05-07T15:24:53;4.75;;;3.80;;
4971;SDS011;2501;51.214;6.768;2023-05-07T15:27:22;5.07;;;4.32;;
4971;SDS011;2501;51.214;6.768;2023-05-07T15:29:51;5.35;;;3.72;;
4971;SDS011;2501;51.214;6.768;2023-05-07T15:32:19;4.30;;;3.90;;
4971;SDS011;2501;51.214;6.768;2023-05-07T15:34:48;3.97;;;3.58;;
4971;SDS011;2501;51.214;6.768;2023-05-07T15:37:16;3.58;;;3.28;;
4971;SDS011;2501;51.214;6.768;2023-05-07T15:39:47;6.65;;;3.50;;
4971;SDS011;2501;51.214;6.768;2023-05-07T15:42:16;9.23;;;3.97;;
4971;SDS011;2501;51.214;6.768;2023-05-07T15:44:45;4.28;;;3.88;;